Time;durP1;ratioP1;P1;durP2;ratioP2;P2;SDS_P1;SDS_P2;PMS_P1;PMS_P2;Temp;Humidity;BMP_temperature;BMP_pressure;BME280_temperature;BME280_humidity;BME280_pressure;Samples;Min_cycle;Max_cycle;Signal;HPM_P1;HPM_P2
2023/10/27 00:02:21;;;;;;;17.95;10.73;;;;;;;13.68;100.00;98434.34;5092978;28;20127;-43
2023/10/27 00:04:50;;;;;;;16.08;10.05;;;;;;;13.76;100.00;98433.59;5091869;28;20081;-42
2023/10/27 00:07:20;;;;;;;14.45;10.70;;;;;;;13.73;100.00;98432.06;5091796;28;20603;-44
2023/10/27 00:09:48;;;;;;;14.63;10.23;;;;;;;13.74;100.00;98428.38;5092895;28;20139;-43
2023/10/27 00:12:17;;;;;;;20.70;11.68;;;;;;;13.80;100.00;98431.41;5092927;28;20044;-42
2023/10/27 00:14:48;;;;;;;15.27;9.95;;;;;;;13.87;100.00;98427.13;5092790;28;20044;-42
2023/10/27 00:17:16;;;;;;;17.60;9.80;;;;;;;13.88;100.00;98428.81;5092371;28;20048;-42
2023/10/27 00:19:46;;;;;;;19.65;9.93;;;;;;;13.90;100.00;98424.16;5092491;28;20455;-43
2023/10/27 00:22:14;;;;;;;15.23;9.27;;;;;;;13.96;100.00;98436.91;5092660;28;20548;-42
2023/10/27 00:24:42;;;;;;;14.60;8.88;;;;;;;14.00;100.00;98417.69;5092481;28;20048;-42
2023/10/27 00:27:11;;;;;;;15.85;9.77;;;;;;;14.04;100.00;98418.19;5091882;28;20180;-41
2023/10/27 00:29:39;;;;;;;16.30;8.85;;;;;;;14.04;100.00;98416.34;5091821;28;20047;-43
2023/10/27 00:32:07;;;;;;;12.82;9.18;;;;;;;14.11;100.00;98419.25;5091634;28;20532;-42
2023/10/27 00:34:35;;;;;;;15.23;8.80;;;;;;;14.11;100.00;98413.06;5092543;28;20084;-42
2023/10/27 00:37:05;;;;;;;14.10;9.00;;;;;;;14.09;100.00;98415.91;5092455;28;20044;-41
2023/10/27 00:39:33;;;;;;;14.55;8.65;;;;;;;14.07;100.00;98412.50;5092450;28;20040;-42
2023/10/27 00:42:02;;;;;;;17.23;9.88;;;;;;;13.96;100.00;98404.75;5092316;28;20441;-42
2023/10/27 00:44:30;;;;;;;14.20;9.68;;;;;;;13.91;100.00;98404.38;5092595;28;20374;-41
2023/10/27 00:46:58;;;;;;;14.80;9.27;;;;;;;13.95;100.00;98401.22;5091939;28;20104;-44
2023/10/27 00:49:28;;;;;;;14.80;8.52;;;;;;;14.02;100.00;98398.75;5092374;28;20060;-42
2023/10/27 00:51:56;;;;;;;13.55;8.50;;;;;;;14.01;100.00;98392.56;5092188;28;20386;-41
2023/10/27 00:54:27;;;;;;;13.27;8.88;;;;;;;14.06;100.00;98405.47;5091986;28;20044;-42
2023/10/27 00:56:56;;;;;;;14.63;7.93;;;;;;;14.07;100.00;98400.94;5091916;28;20097;-41
2023/10/27 00:59:25;;;;;;;15.73;8.15;;;;;;;14.08;100.00;98398.09;5092243;28;20052;-43
2023/10/27 01:01:53;;;;;;;13.23;7.80;;;;;;;14.13;100.00;98401.16;5091990;28;20048;-42
2023/10/27 01:04:21;;;;;;;15.20;7.97;;;;;;;14.14;100.00;98402.84;5091811;28;20059;-43
2023/10/27 01:06:50;;;;;;;15.07;7.95;;;;;;;14.17;100.00;98402.50;5091930;28;20474;-41
2023/10/27 01:09:18;;;;;;;13.38;7.70;;;;;;;14.20;100.00;98401.38;5091088;28;20048;-42
2023/10/27 01:11:49;;;;;;;12.98;8.52;;;;;;;14.22;100.00;98394.00;5092497;28;20040;-42
2023/10/27 01:14:18;;;;;;;12.00;7.78;;;;;;;14.25;100.00;98399.88;5091963;28;20047;-42
2023/10/27 01:16:47;;;;;;;12.98;7.68;;;;;;;14.24;100.00;98400.88;5091182;28;20087;-42
2023/10/27 01:19:15;;;;;;;15.20;7.40;;;;;;;14.23;100.00;98396.50;5090962;28;20059;-44
2023/10/27 01:21:44;;;;;;;12.13;7.30;;;;;;;14.25;100.00;98394.50;5091059;28;20048;-42
2023/10/27 01:24:13;;;;;;;13.02;7.55;;;;;;;14.30;100.00;98388.69;5090889;28;20048;-42
2023/10/27 01:26:42;;;;;;;12.98;6.97;;;;;;;14.30;100.00;98383.31;5090971;28;20068;-42
2023/10/27 01:29:10;;;;;;;11.45;7.18;;;;;;;14.35;100.00;98377.44;5091113;28;20052;-42
2023/10/27 01:31:38;;;;;;;12.52;7.57;;;;;;;14.32;100.00;98382.16;5091622;28;20471;-41
2023/10/27 01:34:07;;;;;;;14.20;7.53;;;;;;;14.29;100.00;98374.44;5091630;28;20089;-43
2023/10/27 01:36:35;;;;;;;13.80;7.43;;;;;;;14.25;100.00;98373.06;5090682;28;20066;-44
2023/10/27 01:39:03;;;;;;;13.68;7.55;;;;;;;14.25;100.00;98367.69;5091870;28;20052;-42
2023/10/27 01:41:33;;;;;;;12.48;7.50;;;;;;;14.23;100.00;98367.03;5091452;28;20055;-43
2023/10/27 01:44:01;;;;;;;13.43;7.18;;;;;;;14.25;100.00;98366.84;5090803;28;20056;-43
2023/10/27 01:46:30;;;;;;;15.10;7.43;;;;;;;14.23;100.00;98369.69;5090747;28;20060;-43
2023/10/27 01:48:59;;;;;;;13.23;7.15;;;;;;;14.29;100.00;98362.88;5089245;28;20086;-42
2023/10/27 01:51:27;;;;;;;13.57;6.45;;;;;;;14.31;100.00;98361.69;5091001;28;20040;-43
2023/10/27 01:53:55;;;;;;;14.73;7.07;;;;;;;14.33;100.00;98354.31;5090951;28;20097;-42
2023/10/27 01:56:24;;;;;;;10.88;6.75;;;;;;;14.32;100.00;98347.28;5091335;28;20044;-42
2023/10/27 01:58:53;;;;;;;15.80;6.72;;;;;;;14.27;100.00;98346.06;5091443;28;20044;-44
2023/10/27 02:01:22;;;;;;;12.57;6.43;;;;;;;14.30;100.00;98343.09;5095726;28;20048;-42
2023/10/27 02:03:50;;;;;;;11.10;5.78;;;;;;;14.33;100.00;98338.22;5094943;28;20044;-43
2023/10/27 02:06:24;;;;;;;11.45;5.72;;;;;;;14.44;100.00;98336.25;5095152;28;20213;-43
2023/10/27 02:08:53;;;;;;;9.63;5.30;;;;;;;14.47;100.00;98342.16;5094721;28;20129;-42
2023/10/27 02:11:23;;;;;;;12.98;5.70;;;;;;;14.44;100.00;98333.56;5094214;28;20473;-42
2023/10/27 02:13:51;;;;;;;9.60;5.43;;;;;;;14.43;100.00;98326.53;5094184;28;20044;-42
2023/10/27 02:16:20;;;;;;;8.40;5.13;;;;;;;14.42;100.00;98320.31;5093988;28;20117;-42
2023/10/27 02:18:49;;;;;;;13.85;5.32;;;;;;;14.44;100.00;98330.88;5094093;28;20048;-43
2023/10/27 02:21:17;;;;;;;9.00;4.70;;;;;;;14.54;100.00;98328.94;5093865;28;20044;-42
2023/10/27 02:23:46;;;;;;;11.30;5.30;;;;;;;14.52;100.00;98321.06;5094779;28;20105;-43
2023/10/27 02:26:14;;;;;;;8.70;4.70;;;;;;;14.58;100.00;98323.09;5094495;28;20413;-44
2023/10/27 02:28:43;;;;;;;8.57;4.85;;;;;;;14.60;100.00;98322.91;5093644;28;20055;-46
2023/10/27 02:31:11;;;;;;;8.90;4.63;;;;;;;14.64;100.00;98321.56;5093810;28;20101;-43
2023/10/27 02:33:41;;;;;;;8.75;4.93;;;;;;;14.65;100.00;98315.19;5093811;28;20497;-43
2023/10/27 02:36:09;;;;;;;9.18;4.55;;;;;;;14.65;100.00;98314.34;5093901;28;20048;-43
2023/10/27 02:38:38;;;;;;;9.90;4.88;;;;;;;14.65;100.00;98317.88;5094239;28;20048;-43
2023/10/27 02:41:09;;;;;;;8.00;4.43;;;;;;;14.64;100.00;98313.53;5094182;28;20067;-43
2023/10/27 02:43:38;;;;;;;8.38;4.72;;;;;;;14.63;100.00;98314.53;5094336;28;20430;-42
2023/10/27 02:46:07;;;;;;;10.48;4.82;;;;;;;14.66;100.00;98310.66;5094471;28;20044;-41
2023/10/27 02:48:35;;;;;;;11.50;4.45;;;;;;;14.69;100.00;98305.84;5094516;28;20051;-43
2023/10/27 02:51:05;;;;;;;10.35;5.00;;;;;;;14.70;100.00;98307.50;5094425;28;20050;-42
2023/10/27 02:53:33;;;;;;;10.05;5.55;;;;;;;14.72;100.00;98304.66;5094086;28;20047;-42
2023/10/27 02:56:06;;;;;;;9.77;4.45;;;;;;;14.71;100.00;98298.44;5093391;28;20044;-43
2023/10/27 02:58:34;;;;;;;9.00;4.63;;;;;;;14.70;100.00;98298.63;5093892;28;20051;-43
2023/10/27 03:01:07;;;;;;;8.40;4.72;;;;;;;14.69;100.00;98289.72;5094020;28;20048;-42
2023/10/27 03:03:36;;;;;;;12.55;5.03;;;;;;;14.73;100.00;98290.22;5094373;28;20454;-42
2023/10/27 03:06:05;;;;;;;10.55;4.82;;;;;;;14.70;100.00;98285.19;5093744;28;20083;-43
2023/10/27 03:08:35;;;;;;;10.45;4.53;;;;;;;14.68;100.00;98282.69;5093577;28;20127;-42
2023/10/27 03:11:03;;;;;;;9.70;4.85;;;;;;;14.67;100.00;98283.69;5093326;28;20059;-42
2023/10/27 03:13:32;;;;;;;9.60;5.18;;;;;;;14.67;100.00;98275.66;5093384;28;20048;-41
2023/10/27 03:16:01;;;;;;;9.38;4.72;;;;;;;14.71;100.00;98276.16;5093287;28;20044;-44
2023/10/27 03:18:29;;;;;;;9.65;4.68;;;;;;;14.76;100.00;98268.41;5093400;28;20059;-42
2023/10/27 03:21:03;;;;;;;9.43;4.30;;;;;;;14.76;100.00;98260.38;5093559;28;20044;-44
2023/10/27 03:23:33;;;;;;;8.05;3.92;;;;;;;14.79;100.00;98257.38;5093083;28;20064;-44
2023/10/27 03:26:01;;;;;;;9.38;3.85;;;;;;;14.70;100.00;98247.63;5093280;28;20048;-42
2023/10/27 03:28:30;;;;;;;7.63;4.05;;;;;;;14.65;100.00;98237.38;5093171;28;20055;-43
2023/10/27 03:30:58;;;;;;;8.20;3.90;;;;;;;14.68;100.00;98239.75;5092936;28;20048;-42
2023/10/27 03:33:27;;;;;;;8.73;3.78;;;;;;;14.68;100.00;98226.34;5092481;28;20416;-42
2023/10/27 03:35:55;;;;;;;11.73;4.00;;;;;;;14.65;100.00;98232.03;5092464;28;20117;-42
2023/10/27 03:38:23;;;;;;;7.47;3.88;;;;;;;14.66;100.00;98228.31;5092718;28;20064;-42
2023/10/27 03:40:54;;;;;;;5.88;3.30;;;;;;;14.68;100.00;98223.66;5092802;28;20048;-42
2023/10/27 03:43:22;;;;;;;9.23;3.78;;;;;;;14.67;100.00;98221.97;5093456;28;20139;-43
2023/10/27 03:45:50;;;;;;;7.35;3.60;;;;;;;14.66;100.00;98219.44;5092520;28;20098;-43
2023/10/27 03:48:19;;;;;;;6.72;3.40;;;;;;;14.68;100.00;98212.94;5092641;28;20124;-44
2023/10/27 03:50:47;;;;;;;6.45;3.63;;;;;;;14.73;100.00;98215.94;5092335;28;20044;-42
2023/10/27 03:53:16;;;;;;;7.70;4.15;;;;;;;14.73;100.00;98209.72;5092623;28;20044;-42
2023/10/27 03:55:53;;;;;;;6.38;3.63;;;;;;;14.78;100.00;98207.38;5092278;28;20055;-42
2023/10/27 03:58:21;;;;;;;6.22;3.85;;;;;;;14.80;100.00;98200.00;5092708;28;20048;-42
2023/10/27 04:01:00;;;;;;;11.27;4.68;;;;;;;14.73;100.00;98188.25;5092358;28;20074;-43
2023/10/27 04:03:31;;;;;;;8.07;5.05;;;;;;;14.70;100.00;98178.69;5092109;28;20127;-43
2023/10/27 04:06:00;;;;;;;9.10;5.05;;;;;;;14.74;100.00;98179.19;5092108;28;20048;-42
2023/10/27 04:08:28;;;;;;;11.13;5.95;;;;;;;14.77;100.00;98168.97;5092668;28;20050;-43
2023/10/27 04:10:58;;;;;;;8.65;5.47;;;;;;;14.72;100.00;98165.94;5092162;28;20442;-42
2023/10/27 04:13:26;;;;;;;8.55;5.07;;;;;;;14.71;100.00;98163.44;5092369;28;20044;-42
2023/10/27 04:15:54;;;;;;;6.25;4.72;;;;;;;14.69;100.00;98165.47;5092530;28;20048;-43
2023/10/27 04:18:22;;;;;;;7.05;4.50;;;;;;;14.75;100.00;98159.41;5091760;28;20143;-42
2023/10/27 04:20:53;;;;;;;7.40;4.20;;;;;;;14.78;100.00;98149.19;5091954;28;20044;-43
2023/10/27 04:23:22;;;;;;;5.25;3.72;;;;;;;14.77;100.00;98142.16;5091422;28;20489;-42
2023/10/27 04:25:51;;;;;;;6.47;3.50;;;;;;;14.74;100.00;98138.94;5092123;28;20443;-43
2023/10/27 04:28:22;;;;;;;5.00;3.40;;;;;;;14.74;100.00;98137.09;5092108;28;20184;-42
2023/10/27 04:30:52;;;;;;;5.60;3.42;;;;;;;14.76;100.00;98128.88;5091992;28;20048;-41
2023/10/27 04:33:22;;;;;;;6.70;3.10;;;;;;;14.82;100.00;98117.47;5091852;28;20144;-42
2023/10/27 04:35:50;;;;;;;5.85;3.60;;;;;;;14.76;100.00;98118.97;5092074;28;20397;-43
2023/10/27 04:38:19;;;;;;;6.38;3.80;;;;;;;14.74;100.00;98110.25;5091767;28;20079;-42
2023/10/27 04:40:51;;;;;;;8.00;4.13;;;;;;;14.75;100.00;98109.25;5091712;28;20094;-43
2023/10/27 04:43:21;;;;;;;6.32;3.42;;;;;;;14.72;100.00;98100.72;5091512;28;20146;-42
2023/10/27 04:45:50;;;;;;;4.95;3.40;;;;;;;14.70;100.00;98087.47;5091634;28;20044;-43
2023/10/27 04:48:18;;;;;;;5.25;2.95;;;;;;;14.69;100.00;98074.22;5091476;28;20044;-43
2023/10/27 04:50:52;;;;;;;3.90;2.63;;;;;;;14.71;100.00;98066.84;5092488;28;20070;-43
2023/10/27 04:53:21;;;;;;;4.47;2.33;;;;;;;14.65;100.00;98064.84;5091426;28;20127;-43
2023/10/27 04:55:49;;;;;;;6.70;2.17;;;;;;;14.69;100.00;98053.59;5092129;28;20043;-42
2023/10/27 04:58:18;;;;;;;5.55;2.30;;;;;;;14.64;100.00;98049.75;5091717;28;20059;-43
2023/10/27 05:00:47;;;;;;;3.90;2.60;;;;;;;14.66;100.00;98045.88;5092357;28;20052;-43
2023/10/27 05:03:17;;;;;;;4.60;2.50;;;;;;;14.67;100.00;98036.84;5093386;28;20082;-42
2023/10/27 05:05:45;;;;;;;3.20;1.85;;;;;;;14.65;100.00;98044.19;5092138;28;20048;-43
2023/10/27 05:08:13;;;;;;;5.00;2.15;;;;;;;14.68;100.00;98041.19;5091655;28;20052;-43
2023/10/27 05:10:42;;;;;;;3.90;2.20;;;;;;;14.69;100.00;98042.88;5091520;28;20044;-43
2023/10/27 05:13:10;;;;;;;5.53;2.33;;;;;;;14.68;100.00;98030.47;5091624;28;20048;-44
2023/10/27 05:15:39;;;;;;;4.38;2.30;;;;;;;14.63;100.00;98027.44;5091819;28;20063;-43
2023/10/27 05:18:08;;;;;;;3.67;2.17;;;;;;;14.64;100.00;98021.06;5091627;28;20048;-44
2023/10/27 05:20:38;;;;;;;4.43;2.08;;;;;;;14.58;100.00;98019.94;5092364;28;20108;-44
2023/10/27 05:23:06;;;;;;;4.57;2.40;;;;;;;14.55;100.00;98014.03;5091022;28;20441;-45
2023/10/27 05:25:35;;;;;;;5.05;2.38;;;;;;;14.54;100.00;98015.06;5090459;28;20048;-44
2023/10/27 05:28:04;;;;;;;5.05;2.28;;;;;;;14.53;100.00;98010.72;5090920;28;20051;-46
2023/10/27 05:30:35;;;;;;;4.53;2.20;;;;;;;14.59;100.00;98002.81;5090367;28;20258;-42
2023/10/27 05:33:03;;;;;;;4.93;2.40;;;;;;;14.50;100.00;98005.69;5090389;28;20052;-43
2023/10/27 05:35:33;;;;;;;4.30;2.10;;;;;;;14.56;100.00;98010.34;5094559;28;20048;-46
2023/10/27 05:38:04;;;;;;;4.53;2.00;;;;;;;14.53;100.00;97994.63;5094506;28;20135;-42
2023/10/27 05:40:33;;;;;;;4.38;2.08;;;;;;;14.55;100.00;97993.41;5094408;28;20289;-44
2023/10/27 05:43:03;;;;;;;4.57;2.00;;;;;;;14.55;100.00;97985.38;5094460;28;20048;-44
2023/10/27 05:45:31;;;;;;;4.97;2.08;;;;;;;14.53;100.00;97984.72;5094502;28;20105;-46
2023/10/27 05:48:00;;;;;;;5.15;2.28;;;;;;;14.52;100.00;97984.88;5094682;28;20055;-45
2023/10/27 05:50:29;;;;;;;3.28;1.90;;;;;;;14.48;100.00;97983.56;5094305;28;20040;-44
2023/10/27 05:52:58;;;;;;;5.40;1.90;;;;;;;14.50;100.00;97979.72;5094206;28;20105;-45
2023/10/27 05:55:27;;;;;;;3.75;2.00;;;;;;;14.46;100.00;97977.53;5094409;28;20123;-45
2023/10/27 05:57:55;;;;;;;4.25;1.95;;;;;;;14.52;100.00;97971.47;5094162;28;20044;-42
2023/10/27 06:00:23;;;;;;;4.45;2.30;;;;;;;14.51;100.00;97977.84;5094392;28;20040;-44
2023/10/27 06:02:53;;;;;;;5.28;2.40;;;;;;;14.49;100.00;97967.31;5094578;28;20093;-43
2023/10/27 06:05:22;;;;;;;3.88;2.38;;;;;;;14.44;100.00;97969.63;5093627;28;20062;-41
2023/10/27 06:07:50;;;;;;;4.65;2.72;;;;;;;14.47;100.00;97961.25;5093624;28;20046;-42
2023/10/27 06:10:20;;;;;;;5.10;2.80;;;;;;;14.49;100.00;97956.56;5093568;28;20538;-42
2023/10/27 06:12:48;;;;;;;5.47;2.88;;;;;;;14.48;100.00;97946.84;5093800;28;20047;-42
2023/10/27 06:15:16;;;;;;;5.57;2.70;;;;;;;14.51;100.00;97953.72;5093542;28;20051;-42
2023/10/27 06:17:44;;;;;;;4.68;2.88;;;;;;;14.52;100.00;97947.34;5093070;28;20052;-41
2023/10/27 06:20:13;;;;;;;5.55;2.60;;;;;;;14.53;100.00;97946.31;5093496;28;20044;-49
2023/10/27 06:22:50;;;;;;;3.75;2.50;;;;;;;14.49;100.00;97939.66;5094098;28;20130;-44
2023/10/27 06:25:20;;;;;;;7.70;2.95;;;;;;;14.47;100.00;97936.28;5095264;28;20059;-43
2023/10/27 06:27:48;;;;;;;5.43;2.90;;;;;;;14.50;100.00;97927.91;5097410;28;20100;-43
2023/10/27 06:30:17;;;;;;;4.45;2.90;;;;;;;14.47;100.00;97912.13;5095841;28;20070;-43
2023/10/27 06:32:45;;;;;;;5.82;3.05;;;;;;;14.47;100.00;97915.66;5094924;28;20052;-42
2023/10/27 06:35:13;;;;;;;5.38;3.35;;;;;;;14.47;100.00;97926.38;5095572;28;20407;-44
2023/10/27 06:37:42;;;;;;;5.60;2.80;;;;;;;14.50;100.00;97915.34;5095367;28;20075;-43
2023/10/27 06:40:11;;;;;;;4.65;2.90;;;;;;;14.51;100.00;97918.84;5095920;28;20048;-43
2023/10/27 06:42:41;;;;;;;6.35;3.08;;;;;;;14.54;100.00;97915.81;5095776;28;20058;-43
2023/10/27 06:45:09;;;;;;;4.97;3.10;;;;;;;14.61;100.00;97916.78;5093426;28;20040;-42
2023/10/27 06:47:39;;;;;;;5.60;2.92;;;;;;;14.60;100.00;97909.75;5093505;28;20048;-44
2023/10/27 06:50:08;;;;;;;5.18;3.42;;;;;;;14.56;100.00;97908.41;5093552;28;20048;-44
2023/10/27 06:52:36;;;;;;;6.82;3.55;;;;;;;14.54;100.00;97905.06;5093360;28;20462;-43
2023/10/27 06:55:06;;;;;;;4.70;3.17;;;;;;;14.58;100.00;97911.78;5093513;28;20052;-41
2023/10/27 06:57:34;;;;;;;6.65;3.50;;;;;;;14.51;100.00;97905.44;5093010;28;20089;-42
2023/10/27 07:00:06;;;;;;;7.47;3.50;;;;;;;14.65;100.00;97903.84;5094133;28;20051;-43
2023/10/27 07:02:35;;;;;;;5.03;3.50;;;;;;;14.66;100.00;97898.31;5093351;28;20638;-42
2023/10/27 07:05:23;;;;;;;6.03;3.63;;;;;;;14.61;100.00;97879.22;5093341;28;20350;-42
2023/10/27 07:07:52;;;;;;;5.65;3.67;;;;;;;14.62;100.00;97890.78;5093267;28;20052;-42
2023/10/27 07:10:21;;;;;;;8.18;3.90;;;;;;;14.61;100.00;97884.59;5125633;27;20079;-42
2023/10/27 07:12:49;;;;;;;8.25;4.65;;;;;;;14.59;100.00;97881.25;5092330;28;20051;-41
2023/10/27 07:15:19;;;;;;;7.00;4.63;;;;;;;14.62;100.00;97885.44;5091819;28;20092;-44
2023/10/27 07:17:48;;;;;;;7.43;4.68;;;;;;;14.70;100.00;97883.53;5092097;28;20046;-42
2023/10/27 07:20:16;;;;;;;5.72;4.40;;;;;;;14.65;100.00;97877.84;5092144;28;20067;-44
2023/10/27 07:22:45;;;;;;;6.15;4.57;;;;;;;14.67;100.00;97870.50;5091691;28;20389;-43
2023/10/27 07:25:13;;;;;;;6.70;4.70;;;;;;;14.73;100.00;97863.56;5091988;28;20044;-42
2023/10/27 07:27:43;;;;;;;6.00;4.80;;;;;;;14.74;100.00;97862.56;5092024;28;20130;-43
2023/10/27 07:30:16;;;;;;;5.68;4.47;;;;;;;14.77;100.00;97873.78;5092989;28;20073;-42
2023/10/27 07:32:45;;;;;;;6.10;4.60;;;;;;;14.71;100.00;97858.38;5092893;28;20043;-44
2023/10/27 07:35:13;;;;;;;6.95;5.18;;;;;;;14.77;100.00;97863.06;5092595;28;20291;-43
2023/10/27 07:37:42;;;;;;;9.95;4.80;;;;;;;14.79;100.00;97839.56;5092049;28;20044;-42
2023/10/27 07:40:11;;;;;;;7.72;4.53;;;;;;;14.81;100.00;97859.00;5092777;28;20070;-42
2023/10/27 07:42:39;;;;;;;6.95;4.28;;;;;;;14.77;100.00;97836.22;5092659;28;20055;-43
2023/10/27 07:45:08;;;;;;;6.95;5.10;;;;;;;14.82;100.00;97847.25;5091793;28;20044;-43
2023/10/27 07:47:39;;;;;;;7.45;4.75;;;;;;;14.72;100.00;97832.38;5091771;28;20050;-41
2023/10/27 07:50:09;;;;;;;6.38;4.20;;;;;;;14.82;100.00;97836.50;5091552;28;20044;-42
2023/10/27 07:52:38;;;;;;;9.27;4.90;;;;;;;14.83;100.00;97834.66;5091638;28;20075;-42
2023/10/27 07:55:07;;;;;;;6.43;4.43;;;;;;;14.86;100.00;97835.16;5091440;28;20044;-42
2023/10/27 07:57:38;;;;;;;7.15;4.53;;;;;;;14.87;100.00;97828.78;5091928;28;20132;-43
2023/10/27 08:00:09;;;;;;;7.05;4.35;;;;;;;14.87;100.00;97825.25;5091689;28;20147;-41
2023/10/27 08:02:38;;;;;;;7.10;4.07;;;;;;;14.89;100.00;97818.69;5091406;28;20054;-42
2023/10/27 08:05:09;;;;;;;6.00;4.38;;;;;;;14.90;100.00;97819.53;5091390;28;20139;-42
2023/10/27 08:07:38;;;;;;;7.32;4.30;;;;;;;14.92;100.00;97811.28;5091341;28;20091;-43
2023/10/27 08:10:07;;;;;;;6.20;3.85;;;;;;;14.94;100.00;97807.41;5092393;28;20455;-41
2023/10/27 08:12:36;;;;;;;11.75;3.70;;;;;;;14.92;100.00;97804.06;5092226;28;20132;-43
2023/10/27 08:15:06;;;;;;;11.40;3.80;;;;;;;14.98;100.00;97802.53;5092039;28;20055;-42
2023/10/27 08:17:34;;;;;;;7.55;3.08;;;;;;;14.92;100.00;97795.19;5091818;28;20048;-42
2023/10/27 08:20:04;;;;;;;5.55;3.20;;;;;;;14.96;100.00;97785.75;5091544;28;20116;-43
2023/10/27 08:22:34;;;;;;;6.13;3.28;;;;;;;14.92;100.00;97779.06;5091697;28;20099;-43
2023/10/27 08:25:03;;;;;;;6.80;3.33;;;;;;;14.97;100.00;97776.69;5091658;28;20040;-42
2023/10/27 08:27:33;;;;;;;4.97;2.85;;;;;;;14.97;100.00;97771.34;5091663;28;20044;-43
2023/10/27 08:30:02;;;;;;;5.93;3.28;;;;;;;14.89;100.00;97772.22;5091544;28;20121;-44
2023/10/27 08:32:30;;;;;;;4.70;2.50;;;;;;;14.97;100.00;97766.81;5091576;28;20412;-42
2023/10/27 08:34:59;;;;;;;5.60;2.75;;;;;;;15.03;100.00;97758.00;5090821;28;20048;-42
2023/10/27 08:37:27;;;;;;;3.83;2.25;;;;;;;15.05;100.00;97760.50;5091328;28;20040;-43
2023/10/27 08:39:57;;;;;;;8.13;2.90;;;;;;;15.07;100.00;97751.28;5091075;28;20067;-43
2023/10/27 08:42:27;;;;;;;5.18;2.63;;;;;;;15.03;100.00;97760.69;5091585;28;20066;-42
2023/10/27 08:44:56;;;;;;;6.18;2.83;;;;;;;15.10;100.00;97750.06;5091647;28;20131;-45
2023/10/27 08:47:25;;;;;;;7.75;2.88;;;;;;;15.10;100.00;97742.84;5090939;28;20063;-42
2023/10/27 08:49:53;;;;;;;9.48;2.90;;;;;;;15.13;100.00;97733.59;5091190;28;20344;-44
2023/10/27 08:52:22;;;;;;;8.30;3.03;;;;;;;15.10;100.00;97712.50;5091004;28;20117;-43
2023/10/27 08:54:51;;;;;;;4.90;2.97;;;;;;;15.08;100.00;97698.41;5091399;28;20382;-42
2023/10/27 08:57:21;;;;;;;8.27;2.70;;;;;;;15.07;100.00;97694.06;5091571;28;20489;-42
2023/10/27 08:59:50;;;;;;;4.65;2.47;;;;;;;15.12;100.00;97694.34;5091537;28;20105;-41
2023/10/27 09:02:29;;;;;;;6.75;2.78;;;;;;;15.10;100.00;97682.97;5091711;28;20388;-43
2023/10/27 09:05:02;;;;;;;6.53;2.90;;;;;;;15.14;100.00;97684.25;5090335;28;20475;-43
2023/10/27 09:07:32;;;;;;;6.18;2.92;;;;;;;15.13;100.00;97679.88;5091332;28;20116;-42
2023/10/27 09:10:01;;;;;;;6.72;3.17;;;;;;;15.17;100.00;97681.22;5094712;28;20051;-42
2023/10/27 09:12:33;;;;;;;4.97;2.40;;;;;;;15.13;100.00;97680.72;5094869;28;20477;-42
2023/10/27 09:15:04;;;;;;;4.93;2.70;;;;;;;15.21;100.00;97671.75;5095330;28;20052;-42
2023/10/27 09:17:51;;;;;;;7.32;2.75;;;;;;;15.18;100.00;97661.41;5094945;28;20052;-42
2023/10/27 09:20:22;;;;;;;6.28;2.78;;;;;;;15.17;100.00;97655.19;5095127;28;20473;-43
2023/10/27 09:22:58;;;;;;;6.82;2.75;;;;;;;15.19;100.00;97646.94;5094855;28;20305;-44
2023/10/27 09:25:31;;;;;;;7.70;2.97;;;;;;;15.16;100.00;97641.97;5095192;28;20060;-43
2023/10/27 09:28:01;;;;;;;5.65;2.63;;;;;;;15.18;100.00;97635.38;5094961;28;20051;-42
2023/10/27 09:30:32;;;;;;;7.78;3.25;;;;;;;15.22;100.00;97630.47;5095173;28;20044;-43
2023/10/27 09:33:12;;;;;;;5.60;3.17;;;;;;;15.27;100.00;97622.69;5094969;28;20055;-42
2023/10/27 09:35:41;;;;;;;5.03;2.65;;;;;;;15.25;100.00;97613.13;5095450;28;20074;-43
2023/10/27 09:38:10;;;;;;;6.60;3.05;;;;;;;15.29;100.00;97609.06;5094271;28;20532;-41
2023/10/27 09:40:38;;;;;;;8.02;3.25;;;;;;;15.30;100.00;97603.50;5094523;28;20598;-42
2023/10/27 09:43:15;;;;;;;7.53;3.20;;;;;;;15.36;100.00;97600.09;5094095;28;20058;-42
2023/10/27 09:45:50;;;;;;;4.88;3.17;;;;;;;15.44;100.00;97588.41;5094428;28;20055;-42
2023/10/27 09:48:24;;;;;;;7.70;3.10;;;;;;;15.39;100.00;97591.66;5095078;28;20481;-44
2023/10/27 09:51:00;;;;;;;7.68;3.33;;;;;;;15.44;100.00;97591.94;5094569;28;20064;-43
2023/10/27 09:53:30;;;;;;;11.27;3.20;;;;;;;15.44;100.00;97575.81;5094427;28;20039;-43
2023/10/27 09:55:59;;;;;;;8.20;3.25;;;;;;;15.45;100.00;97573.97;5094359;28;20477;-42
2023/10/27 09:58:33;;;;;;;6.40;3.47;;;;;;;15.55;100.00;97569.13;5093714;28;20048;-45
2023/10/27 10:01:03;;;;;;;7.22;3.20;;;;;;;15.53;100.00;97567.63;5094284;28;20083;-44
2023/10/27 10:03:34;;;;;;;6.40;3.45;;;;;;;15.46;100.00;97554.97;5094171;28;20143;-43
2023/10/27 10:06:11;;;;;;;8.25;3.60;;;;;;;15.51;100.00;97554.38;5094657;28;20579;-42
2023/10/27 10:08:41;;;;;;;6.90;3.53;;;;;;;15.60;100.00;97547.06;5094399;28;20040;-42
2023/10/27 10:11:15;;;;;;;6.78;3.95;;;;;;;15.63;100.00;97539.50;5093846;28;20055;-43
2023/10/27 10:13:47;;;;;;;9.32;3.88;;;;;;;15.71;100.00;97535.84;5093639;28;20382;-42
2023/10/27 10:16:16;;;;;;;7.43;3.67;;;;;;;15.74;100.00;97535.47;5093287;28;20040;-41
2023/10/27 10:18:52;;;;;;;9.07;3.70;;;;;;;15.77;100.00;97540.47;5093335;28;20124;-42
2023/10/27 10:21:35;;;;;;;6.93;3.90;;;;;;;15.77;100.00;97534.25;5092484;28;20061;-43
2023/10/27 10:24:09;;;;;;;8.48;3.85;;;;;;;15.80;100.00;97528.50;5093968;28;20056;-42
2023/10/27 10:26:56;;;;;;;;;;;;;;;15.80;100.00;97529.31;5095429;28;20044;-43
2023/10/27 10:29:33;;;;;;;6.80;3.15;;;;;;;15.72;100.00;97526.75;5095047;28;20418;-44
2023/10/27 10:32:36;;;;;;;8.82;3.72;;;;;;;15.70;100.00;97536.88;5094261;28;20040;-42
2023/10/27 10:35:23;;;;;;;7.90;3.33;;;;;;;15.70;100.00;97521.56;5093551;28;20052;-42
2023/10/27 10:37:52;;;;;;;7.22;3.20;;;;;;;15.74;100.00;97524.72;5093533;28;20117;-42
2023/10/27 10:40:24;;;;;;;9.00;3.80;;;;;;;15.80;100.00;97509.69;5094142;28;20040;-42
2023/10/27 10:43:27;;;;;;;8.95;3.33;;;;;;;15.76;100.00;97519.16;5093954;28;20135;-41
2023/10/27 10:45:58;;;;;;;7.33;3.20;;;;;;;15.76;100.00;97514.63;5050203;28;20129;-43
2023/10/27 10:48:31;;;;;;;6.43;3.42;;;;;;;15.82;100.00;97519.19;5050027;28;20177;-42
2023/10/27 10:51:04;;;;;;;8.40;3.97;;;;;;;15.78;100.00;97507.19;5072214;28;20059;-42
2023/10/27 10:53:33;;;;;;;9.32;4.00;;;;;;;15.73;100.00;97501.56;5092674;28;20101;-42
2023/10/27 10:56:02;;;;;;;6.90;3.80;;;;;;;15.73;100.00;97496.19;5092693;28;20087;-43
2023/10/27 10:58:36;;;;;;;9.68;3.88;;;;;;;15.70;100.00;97493.88;5092717;28;20105;-42
2023/10/27 11:01:15;;;;;;;7.65;3.88;;;;;;;15.71;100.00;97474.88;5092342;28;20552;-42
2023/10/27 11:03:47;;;;;;;9.75;4.32;;;;;;;15.72;100.00;97470.31;5092634;28;20130;-42
2023/10/27 11:06:19;;;;;;;7.57;4.17;;;;;;;15.78;100.00;97474.94;5092514;28;20133;-42
2023/10/27 11:08:48;;;;;;;11.80;4.47;;;;;;;15.76;100.00;97466.25;5092602;28;20277;-42
2023/10/27 11:11:16;;;;;;;10.85;4.40;;;;;;;15.81;100.00;97463.78;5092442;28;20044;-43
2023/10/27 11:13:46;;;;;;;7.90;4.60;;;;;;;15.84;100.00;97455.38;5092750;28;20063;-42
2023/10/27 11:16:17;;;;;;;8.90;4.50;;;;;;;15.83;100.00;97477.06;5093394;28;20142;-43
2023/10/27 11:18:47;;;;;;;11.07;4.53;;;;;;;15.84;100.00;97493.00;5092654;28;20131;-44
2023/10/27 11:21:17;;;;;;;9.85;4.43;;;;;;;15.84;100.00;97500.22;5093158;28;20059;-43
2023/10/27 11:23:46;;;;;;;9.13;4.57;;;;;;;15.80;100.00;97510.50;5091860;28;20132;-42
2023/10/27 11:26:17;;;;;;;8.13;4.90;;;;;;;15.85;100.00;97521.53;5092012;28;20044;-42
2023/10/27 11:28:46;;;;;;;10.00;4.53;;;;;;;15.81;100.00;97539.03;5092193;28;20097;-42
2023/10/27 11:31:25;;;;;;;12.60;5.63;;;;;;;15.79;100.00;97561.75;5092203;28;20044;-43
2023/10/27 11:33:58;;;;;;;10.05;4.95;;;;;;;15.75;100.00;97572.06;5093704;28;20152;-43
2023/10/27 11:36:28;;;;;;;9.27;5.03;;;;;;;15.81;100.00;97576.66;5092369;28;20054;-43
2023/10/27 11:39:11;;;;;;;12.73;5.13;;;;;;;15.80;100.00;97575.00;5093070;28;20048;-43